Time;durP1;ratioP1;P1;durP2;ratioP2;P2;SDS_P1;SDS_P2;PMS_P1;PMS_P2;Temp;Humidity;BMP_temperature;BMP_pressure;BME280_temperature;BME280_humidity;BME280_pressure;Samples;Min_cycle;Max_cycle;Signal;HPM_P1;HPM_P2
2023/06/07 00:00:10;;;;;;;4.20;3.40;;;19.90;1.00;;;;;;5094473;28;20555;-67
2023/06/07 00:02:38;;;;;;;3.73;3.40;;;19.80;1.00;;;;;;5094629;28;20458;-67
2023/06/07 00:05:06;;;;;;;5.00;3.50;;;19.80;1.00;;;;;;5094606;28;20457;-67
2023/06/07 00:07:35;;;;;;;4.90;3.47;;;19.80;1.00;;;;;;5094626;28;20453;-67
2023/06/07 00:10:02;;;;;;;5.03;3.80;;;19.70;1.00;;;;;;5094387;28;20470;-67
2023/06/07 00:12:29;;;;;;;3.70;3.30;;;19.70;1.00;;;;;;5094996;28;20450;-67
2023/06/07 00:14:56;;;;;;;3.97;3.57;;;19.70;1.00;;;;;;5094755;28;20463;-67
2023/06/07 00:17:24;;;;;;;6.10;4.00;;;19.70;1.00;;;;;;5094611;28;20480;-67
2023/06/07 00:19:52;;;;;;;3.50;3.13;;;19.70;1.00;;;;;;5094656;28;20460;-67
2023/06/07 00:22:19;;;;;;;3.73;3.37;;;19.60;1.00;;;;;;5094585;28;20548;-67
2023/06/07 00:24:47;;;;;;;4.90;3.80;;;19.60;1.00;;;;;;5094188;28;20493;-67
2023/06/07 00:27:14;;;;;;;4.20;3.40;;;19.60;1.00;;;;;;5094222;28;20548;-67
2023/06/07 00:29:41;;;;;;;6.13;3.47;;;19.60;1.00;;;;;;5095224;28;20453;-67
2023/06/07 00:32:08;;;;;;;5.03;3.90;;;19.60;1.00;;;;;;5098702;28;20484;-66
2023/06/07 00:34:35;;;;;;;4.73;3.70;;;19.60;1.00;;;;;;5098500;28;20492;-66
2023/06/07 00:37:02;;;;;;;5.70;3.43;;;19.60;1.00;;;;;;5098416;28;20568;-67
2023/06/07 00:39:29;;;;;;;4.03;3.73;;;19.60;1.00;;;;;;5098598;28;20453;-67
2023/06/07 00:41:57;;;;;;;4.30;3.90;;;19.60;1.00;;;;;;5098741;28;20457;-67
2023/06/07 00:44:24;;;;;;;3.90;3.50;;;19.60;1.00;;;;;;5098754;28;20562;-67
2023/06/07 00:46:52;;;;;;;4.27;3.87;;;19.60;1.00;;;;;;5098374;28;20453;-67
2023/06/07 00:49:19;;;;;;;4.57;4.13;;;19.50;1.00;;;;;;5098534;28;20753;-67
2023/06/07 00:51:47;;;;;;;4.13;3.73;;;19.50;1.00;;;;;;5098551;28;20567;-66
2023/06/07 00:54:17;;;;;;;3.97;3.57;;;19.50;1.00;;;;;;5098520;28;20788;-66
2023/06/07 00:56:45;;;;;;;6.23;3.73;;;19.50;1.00;;;;;;5098265;28;20518;-66
2023/06/07 00:59:13;;;;;;;5.60;3.57;;;19.40;1.00;;;;;;5097969;28;20457;-67
2023/06/07 01:01:41;;;;;;;5.40;4.07;;;19.40;1.00;;;;;;5098393;28;20556;-67
2023/06/07 01:04:09;;;;;;;4.80;3.27;;;19.40;1.00;;;;;;5097969;28;20499;-67
2023/06/07 01:06:36;;;;;;;4.30;3.83;;;19.40;1.00;;;;;;5098193;28;20773;-67
2023/06/07 01:09:05;;;;;;;4.30;3.73;;;19.40;1.00;;;;;;5098369;28;20833;-67
2023/06/07 01:11:33;;;;;;;4.60;3.30;;;19.40;1.00;;;;;;5098141;28;20473;-67
2023/06/07 01:14:00;;;;;;;3.67;3.37;;;19.30;1.00;;;;;;5098206;28;20765;-67
2023/06/07 01:16:28;;;;;;;4.27;3.63;;;19.30;1.00;;;;;;5098029;28;20540;-67
2023/06/07 01:18:56;;;;;;;5.67;4.27;;;19.30;1.00;;;;;;5098002;28;20485;-67
2023/06/07 01:21:24;;;;;;;5.83;3.60;;;19.30;1.00;;;;;;5097523;28;20453;-67
2023/06/07 01:23:52;;;;;;;5.10;3.70;;;19.30;1.00;;;;;;5097889;28;20457;-67
2023/06/07 01:26:19;;;;;;;4.03;3.57;;;19.30;1.00;;;;;;5097880;28;20461;-68
2023/06/07 01:28:47;;;;;;;5.77;3.90;;;19.30;1.00;;;;;;5097531;28;20457;-67
2023/06/07 01:31:16;;;;;;;4.67;3.60;;;19.30;1.00;;;;;;5097484;28;20477;-67
2023/06/07 01:33:43;;;;;;;4.47;4.03;;;19.20;1.00;;;;;;5097083;28;20453;-67
2023/06/07 01:36:14;;;;;;;4.33;3.70;;;19.20;1.00;;;;;;5097085;28;20492;-67
2023/06/07 01:38:42;;;;;;;4.90;4.20;;;19.20;1.00;;;;;;5097260;28;20444;-67
2023/06/07 01:41:12;;;;;;;3.97;3.67;;;19.20;1.00;;;;;;5096349;28;20442;-67
2023/06/07 01:43:40;;;;;;;5.60;3.60;;;19.20;1.00;;;;;;5096810;28;20926;-67
2023/06/07 01:46:08;;;;;;;4.83;3.43;;;19.10;1.00;;;;;;5096857;28;20449;-67
2023/06/07 01:48:35;;;;;;;3.63;3.33;;;19.10;1.00;;;;;;5096863;28;20793;-67
2023/06/07 01:51:02;;;;;;;3.70;3.40;;;19.10;1.00;;;;;;5096649;28;21010;-68
2023/06/07 01:53:30;;;;;;;4.40;4.00;;;19.10;1.00;;;;;;5096568;28;20836;-67
2023/06/07 01:56:08;;;;;;;4.20;3.37;;;19.10;1.00;;;;;;5096664;28;20461;-67
2023/06/07 01:58:49;;;;;;;7.10;5.67;;;19.00;1.00;;;;;;5097005;28;20442;-67
2023/06/07 02:01:22;;;;;;;4.13;3.60;;;19.00;1.00;;;;;;5096793;28;20437;-67
2023/06/07 02:03:53;;;;;;;5.00;4.00;;;19.00;1.00;;;;;;5096555;28;20914;-67
2023/06/07 02:06:31;;;;;;;7.70;3.30;;;19.00;1.00;;;;;;5096797;28;20823;-67
2023/06/07 02:09:04;;;;;;;5.30;3.60;;;19.00;1.00;;;;;;5096757;28;20438;-67
2023/06/07 02:11:32;;;;;;;5.37;4.07;;;19.00;1.00;;;;;;5097019;28;20461;-67
2023/06/07 02:14:00;;;;;;;3.77;3.47;;;18.90;1.00;;;;;;5096557;28;20578;-67
2023/06/07 02:16:35;;;;;;;3.97;3.53;;;19.00;1.00;;;;;;5096182;28;20540;-67
2023/06/07 02:19:04;;;;;;;4.07;3.63;;;18.90;1.00;;;;;;5097109;28;20437;-67
2023/06/07 02:21:32;;;;;;;5.87;3.63;;;18.90;1.00;;;;;;5096490;28;20470;-70
2023/06/07 02:23:59;;;;;;;4.37;3.63;;;19.00;1.00;;;;;;5096457;28;20466;-67
2023/06/07 02:26:26;;;;;;;4.83;3.50;;;19.00;1.00;;;;;;5095964;28;20926;-67
2023/06/07 02:28:53;;;;;;;4.03;3.47;;;18.90;1.00;;;;;;5096214;28;20559;-67
2023/06/07 02:31:21;;;;;;;3.60;3.30;;;18.90;1.00;;;;;;5096010;28;20485;-67
2023/06/07 02:33:48;;;;;;;3.90;3.60;;;18.90;1.00;;;;;;5096093;28;20468;-67
2023/06/07 02:36:15;;;;;;;4.00;3.20;;;18.90;1.00;;;;;;5095858;28;20577;-67
2023/06/07 02:38:42;;;;;;;3.93;3.57;;;18.90;1.00;;;;;;5096326;28;20444;-67
2023/06/07 02:41:08;;;;;;;8.40;3.60;;;18.90;1.00;;;;;;5095629;28;20540;-67
2023/06/07 02:43:36;;;;;;;40.73;36.23;;;18.80;1.00;;;;;;5095838;28;20551;-67
2023/06/07 02:46:03;;;;;;;7.17;5.20;;;18.80;1.00;;;;;;5096095;28;20561;-67
2023/06/07 02:48:31;;;;;;;3.70;2.90;;;18.80;1.00;;;;;;5095710;28;20522;-67
2023/06/07 02:50:58;;;;;;;3.87;3.57;;;18.80;1.00;;;;;;5095522;28;20572;-67
2023/06/07 02:53:26;;;;;;;5.07;3.40;;;18.80;1.00;;;;;;5095677;28;20480;-67
2023/06/07 02:55:53;;;;;;;4.43;3.20;;;18.80;1.00;;;;;;5095730;28;20519;-67
2023/06/07 02:58:20;;;;;;;5.47;3.57;;;18.80;1.00;;;;;;5095468;28;20539;-67
2023/06/07 03:00:49;;;;;;;4.17;3.67;;;18.70;1.00;;;;;;5095435;28;20759;-67
2023/06/07 03:03:17;;;;;;;4.40;3.57;;;18.70;1.00;;;;;;5095537;28;20457;-67
2023/06/07 03:05:46;;;;;;;5.37;4.00;;;18.70;1.00;;;;;;5095146;28;20457;-67
2023/06/07 03:08:13;;;;;;;4.17;3.40;;;18.70;1.00;;;;;;5095076;28;20487;-67
2023/06/07 03:10:40;;;;;;;5.20;3.90;;;18.70;1.00;;;;;;5095168;28;20548;-67
2023/06/07 03:13:07;;;;;;;4.40;3.40;;;18.60;1.00;;;;;;5094786;28;20461;-65
2023/06/07 03:15:35;;;;;;;3.80;3.40;;;18.70;1.00;;;;;;5095100;28;20552;-63
2023/06/07 03:18:03;;;;;;;4.87;4.30;;;18.70;1.00;;;;;;5095082;28;20457;-63
2023/06/07 03:20:34;;;;;;;5.63;3.90;;;18.60;1.00;;;;;;5094766;28;20457;-63
2023/06/07 03:23:02;;;;;;;4.33;3.93;;;18.60;1.00;;;;;;5094980;28;20438;-63
2023/06/07 03:25:30;;;;;;;6.07;4.10;;;18.60;1.00;;;;;;5094821;28;20762;-63
2023/06/07 03:27:56;;;;;;;4.20;3.90;;;18.60;1.00;;;;;;5094780;28;20468;-63
2023/06/07 03:30:23;;;;;;;4.70;3.87;;;18.60;1.00;;;;;;5094950;28;20464;-63
2023/06/07 03:32:50;;;;;;;5.90;3.63;;;18.60;1.00;;;;;;5094932;28;20564;-63
2023/06/07 03:35:17;;;;;;;6.13;3.90;;;18.50;1.00;;;;;;5094760;28;20457;-63
2023/06/07 03:37:44;;;;;;;4.53;3.63;;;18.60;1.00;;;;;;5094519;28;20481;-62
2023/06/07 03:40:13;;;;;;;4.40;3.83;;;18.50;1.00;;;;;;5094959;28;20472;-63
2023/06/07 03:42:40;;;;;;;3.80;3.50;;;18.50;1.00;;;;;;5094545;28;20457;-62
2023/06/07 03:45:08;;;;;;;5.53;4.13;;;18.50;1.00;;;;;;5094727;28;20492;-63
2023/06/07 03:47:35;;;;;;;4.03;3.63;;;18.50;1.00;;;;;;5094366;28;20467;-63
2023/06/07 03:50:02;;;;;;;4.80;4.30;;;18.50;1.00;;;;;;5094298;28;20978;-63
2023/06/07 03:52:28;;;;;;;5.73;4.67;;;18.50;1.00;;;;;;5094190;28;20560;-63
2023/06/07 03:54:55;;;;;;;5.60;4.07;;;18.50;1.00;;;;;;5094380;28;20460;-63
2023/06/07 03:57:23;;;;;;;8.73;3.93;;;18.50;1.00;;;;;;5094264;28;20942;-63
2023/06/07 03:59:50;;;;;;;7.00;4.17;;;18.50;1.00;;;;;;5094574;28;20536;-64
2023/06/07 04:02:17;;;;;;;4.90;3.80;;;18.50;1.00;;;;;;5094754;28;20464;-63
2023/06/07 04:04:44;;;;;;;5.37;3.70;;;18.50;1.00;;;;;;5093827;28;20944;-63
2023/06/07 04:07:11;;;;;;;4.57;4.00;;;18.60;1.00;;;;;;5094564;28;20781;-63
2023/06/07 04:09:39;;;;;;;3.83;3.50;;;18.60;1.00;;;;;;5094530;28;20507;-63
2023/06/07 04:12:07;;;;;;;6.57;3.63;;;18.60;1.00;;;;;;5094410;28;20473;-62
2023/06/07 04:14:35;;;;;;;9.00;3.77;;;18.60;1.00;;;;;;5094263;28;20993;-63
2023/06/07 04:17:03;;;;;;;4.70;3.60;;;18.60;1.00;;;;;;5094303;28;20544;-63
2023/06/07 04:19:30;;;;;;;4.03;3.73;;;18.60;1.00;;;;;;5094482;28;20759;-63
2023/06/07 04:21:58;;;;;;;7.47;3.53;;;18.70;1.00;;;;;;5094307;28;20522;-63
2023/06/07 04:24:25;;;;;;;5.57;4.77;;;18.70;1.00;;;;;;5094098;28;20515;-62
2023/06/07 04:26:53;;;;;;;4.40;3.77;;;18.80;1.00;;;;;;5094125;28;20868;-63
2023/06/07 04:29:21;;;;;;;4.47;3.97;;;18.80;1.00;;;;;;5093922;28;20456;-63
2023/06/07 04:31:52;;;;;;;5.23;4.10;;;18.80;1.00;;;;;;5093989;28;20485;-63
2023/06/07 04:34:21;;;;;;;3.80;3.50;;;18.90;1.00;;;;;;5094078;28;20442;-63
2023/06/07 04:36:49;;;;;;;4.37;3.97;;;18.90;1.00;;;;;;5093637;28;20501;-63
2023/06/07 04:39:18;;;;;;;6.33;4.20;;;18.90;1.00;;;;;;5094095;28;20468;-62
2023/06/07 04:41:45;;;;;;;5.17;4.50;;;19.00;1.00;;;;;;5093802;28;20453;-63
2023/06/07 04:44:12;;;;;;;5.10;4.00;;;19.00;1.00;;;;;;5093549;28;20449;-63
2023/06/07 04:46:40;;;;;;;5.30;3.77;;;19.00;1.00;;;;;;5093608;28;20456;-62
2023/06/07 04:49:08;;;;;;;4.60;3.80;;;19.00;1.00;;;;;;5093942;28;20556;-59
2023/06/07 04:51:36;;;;;;;7.20;4.00;;;19.00;1.00;;;;;;5093825;28;20607;-63
2023/06/07 04:54:04;;;;;;;6.63;3.77;;;19.00;1.00;;;;;;5094039;28;20465;-63
2023/06/07 04:56:31;;;;;;;5.87;4.20;;;19.00;1.00;;;;;;5093540;28;20457;-63
2023/06/07 04:58:58;;;;;;;6.87;3.40;;;19.10;1.00;;;;;;5093723;28;20457;-62
2023/06/07 05:01:25;;;;;;;4.00;3.33;;;19.10;1.00;;;;;;5093454;28;20488;-63
2023/06/07 05:03:59;;;;;;;4.93;3.40;;;19.20;1.00;;;;;;5093554;28;20449;-63
2023/06/07 05:06:28;;;;;;;4.90;4.40;;;19.20;1.00;;;;;;5093482;28;20442;-63
2023/06/07 05:08:55;;;;;;;3.87;3.47;;;19.20;1.00;;;;;;5093648;28;20783;-63
2023/06/07 05:11:22;;;;;;;5.23;3.80;;;19.20;1.00;;;;;;5093822;28;20468;-63
2023/06/07 05:13:49;;;;;;;8.10;5.30;;;19.30;1.00;;;;;;5093299;28;21104;-63
2023/06/07 05:16:18;;;;;;;4.00;3.27;;;19.30;1.00;;;;;;5094112;28;20840;-64
2023/06/07 05:18:46;;;;;;;7.00;3.20;;;19.30;1.00;;;;;;5096912;28;20453;-63
2023/06/07 05:21:13;;;;;;;4.40;3.50;;;19.40;1.00;;;;;;5097179;28;20564;-63
2023/06/07 05:23:41;;;;;;;4.07;3.53;;;19.40;1.00;;;;;;5096822;28;20571;-64
2023/06/07 05:26:08;;;;;;;3.87;3.40;;;19.40;1.00;;;;;;5096948;28;20960;-62
2023/06/07 05:28:35;;;;;;;5.00;4.00;;;19.40;1.00;;;;;;5097209;28;20952;-62
2023/06/07 05:31:02;;;;;;;4.90;4.07;;;19.50;1.00;;;;;;5096827;28;20454;-62
2023/06/07 05:33:30;;;;;;;5.30;3.40;;;19.60;1.00;;;;;;5096594;28;20551;-62
2023/06/07 05:35:57;;;;;;;4.10;3.70;;;19.60;1.00;;;;;;5096617;28;20453;-63
2023/06/07 05:38:24;;;;;;;4.63;3.40;;;19.60;1.00;;;;;;5097210;28;20503;-63
2023/06/07 05:40:54;;;;;;;5.97;4.17;;;19.70;1.00;;;;;;5097076;28;20540;-63
2023/06/07 05:43:21;;;;;;;4.10;3.50;;;19.70;1.00;;;;;;5096396;28;20456;-62
2023/06/07 05:45:48;;;;;;;5.37;3.37;;;19.70;1.00;;;;;;5096854;28;20471;-62
2023/06/07 05:48:14;;;;;;;5.80;4.20;;;19.80;1.00;;;;;;5096586;28;20544;-62
2023/06/07 05:50:41;;;;;;;5.77;3.73;;;19.80;1.00;;;;;;5096239;28;20453;-63
2023/06/07 05:53:08;;;;;;;11.57;3.47;;;19.90;1.00;;;;;;5096404;28;20477;-62
2023/06/07 05:55:36;;;;;;;8.50;4.50;;;19.90;1.00;;;;;;5096072;28;20625;-62
2023/06/07 05:58:04;;;;;;;4.17;3.77;;;20.00;1.00;;;;;;5096298;28;20453;-62
2023/06/07 06:00:31;;;;;;;7.70;4.00;;;20.00;1.00;;;;;;5095863;28;20462;-61
2023/06/07 06:03:01;;;;;;;5.33;3.90;;;20.00;1.00;;;;;;5096211;28;20458;-62
2023/06/07 06:05:28;;;;;;;7.03;4.23;;;20.00;1.00;;;;;;5095816;28;20548;-62
2023/06/07 06:07:55;;;;;;;4.50;4.03;;;20.00;1.00;;;;;;5096228;28;20462;-63
2023/06/07 06:10:22;;;;;;;7.50;4.73;;;20.00;1.00;;;;;;5096105;28;20453;-63
2023/06/07 06:12:49;;;;;;;6.37;4.13;;;20.10;1.00;;;;;;5095822;28;20770;-63
2023/06/07 06:15:17;;;;;;;4.40;3.50;;;20.10;1.00;;;;;;5095964;28;20481;-62
2023/06/07 06:17:44;;;;;;;5.30;4.17;;;20.10;1.00;;;;;;5095670;28;20539;-62
2023/06/07 06:20:12;;;;;;;7.30;4.00;;;20.10;1.00;;;;;;5095591;28;20549;-62
2023/06/07 06:22:39;;;;;;;10.13;4.00;;;20.10;1.00;;;;;;5095732;28;20476;-62
2023/06/07 06:25:07;;;;;;;5.47;3.70;;;20.10;1.00;;;;;;5096015;28;20495;-62
2023/06/07 06:27:34;;;;;;;8.57;5.87;;;20.10;1.00;;;;;;5094980;28;20534;-62
2023/06/07 06:30:00;;;;;;;6.57;4.13;;;20.10;1.00;;;;;;5095259;28;20468;-62
2023/06/07 06:32:29;;;;;;;6.03;3.40;;;20.20;1.00;;;;;;5095611;28;20564;-63
2023/06/07 06:34:55;;;;;;;3.40;3.10;;;20.20;1.00;;;;;;5095507;28;20496;-62
2023/06/07 06:37:23;;;;;;;5.90;4.13;;;20.20;1.00;;;;;;5095158;28;20825;-62
2023/06/07 06:39:51;;;;;;;5.90;3.30;;;20.20;1.00;;;;;;5095664;28;20560;-63
2023/06/07 06:42:18;;;;;;;5.00;3.80;;;20.20;1.00;;;;;;5095252;28;20449;-63
2023/06/07 06:44:45;;;;;;;3.37;3.10;;;20.30;1.00;;;;;;5095131;28;20543;-63
2023/06/07 06:47:11;;;;;;;3.93;3.53;;;20.40;1.00;;;;;;5095565;28;20463;-63
2023/06/07 06:49:40;;;;;;;8.27;3.73;;;20.40;1.00;;;;;;5095489;28;20484;-64
2023/06/07 06:52:07;;;;;;;4.50;3.70;;;20.50;1.00;;;;;;5094827;28;20473;-64
2023/06/07 06:54:34;;;;;;;6.10;3.10;;;20.60;1.00;;;;;;5095057;28;20471;-63
2023/06/07 06:57:01;;;;;;;4.77;3.67;;;20.60;1.00;;;;;;5095176;28;20548;-63
2023/06/07 06:59:28;;;;;;;4.30;3.47;;;20.70;1.00;;;;;;5095136;28;20463;-63
2023/06/07 07:01:56;;;;;;;3.67;3.17;;;20.80;1.00;;;;;;5095380;28;20571;-63
2023/06/07 07:04:23;;;;;;;10.07;5.00;;;20.80;1.00;;;;;;5095298;28;20828;-63
2023/06/07 07:06:51;;;;;;;4.60;3.90;;;20.90;1.00;;;;;;5094715;28;20458;-63
2023/06/07 07:09:18;;;;;;;4.27;3.03;;;21.00;1.00;;;;;;5094817;28;20463;-63
2023/06/07 07:11:45;;;;;;;4.10;3.10;;;21.00;1.00;;;;;;5094953;28;20463;-62
2023/06/07 07:14:12;;;;;;;5.90;3.47;;;21.10;1.00;;;;;;5094783;28;20449;-63
2023/06/07 07:16:39;;;;;;;4.80;3.90;;;21.20;1.00;;;;;;5094662;28;20917;-62
2023/06/07 07:19:06;;;;;;;5.70;4.00;;;21.30;1.00;;;;;;5094690;28;20454;-62
2023/06/07 07:21:33;;;;;;;7.87;4.20;;;21.30;1.00;;;;;;5095017;28;20831;-62
2023/06/07 07:24:01;;;;;;;6.83;3.37;;;21.40;1.00;;;;;;5094733;28;20457;-62
2023/06/07 07:26:28;;;;;;;4.57;2.80;;;21.40;1.00;;;;;;5094229;28;20457;-62
2023/06/07 07:28:55;;;;;;;6.93;3.60;;;21.50;1.00;;;;;;5094449;28;20502;-63
2023/06/07 07:31:22;;;;;;;4.60;3.20;;;21.50;1.00;;;;;;5094638;28;20536;-63
2023/06/07 07:33:49;;;;;;;3.47;2.93;;;21.60;1.00;;;;;;5094490;28;20496;-62
2023/06/07 07:36:17;;;;;;;6.83;3.50;;;21.70;1.00;;;;;;5094292;28;20477;-62
2023/06/07 07:38:45;;;;;;;6.17;3.17;;;21.70;1.00;;;;;;5094183;28;20552;-62
2023/06/07 07:41:15;;;;;;;5.40;3.27;;;21.80;1.00;;;;;;5093728;28;20911;-62
2023/06/07 07:43:42;;;;;;;4.43;3.90;;;21.90;1.00;;;;;;5094752;28;20512;-63
2023/06/07 07:46:09;;;;;;;5.97;5.27;;;21.90;1.00;;;;;;5094569;28;20457;-61
2023/06/07 07:48:36;;;;;;;5.67;3.20;;;21.90;1.00;;;;;;5094506;28;20535;-63
2023/06/07 07:51:03;;;;;;;4.40;3.40;;;22.00;1.00;;;;;;5094515;28;20479;-63
2023/06/07 07:53:31;;;;;;;4.33;3.70;;;22.00;1.00;;;;;;5094131;28;20480;-62
2023/06/07 07:55:58;;;;;;;8.80;4.00;;;22.10;1.00;;;;;;5094349;28;20547;-63
2023/06/07 07:58:26;;;;;;;4.97;3.43;;;22.10;1.00;;;;;;5094361;28;20457;-63
2023/06/07 08:00:53;;;;;;;12.53;4.50;;;22.20;1.00;;;;;;5093940;28;20457;-63
2023/06/07 08:03:21;;;;;;;5.40;3.87;;;22.30;1.00;;;;;;5094279;28;20461;-63
2023/06/07 08:05:48;;;;;;;6.00;3.90;;;22.40;1.00;;;;;;5094560;28;20547;-63
2023/06/07 08:08:16;;;;;;;6.60;3.50;;;22.40;1.00;;;;;;5094147;28;20548;-63
2023/06/07 08:10:43;;;;;;;7.70;3.80;;;22.50;1.00;;;;;;5094808;28;20453;-63
2023/06/07 08:13:10;;;;;;;5.90;3.43;;;22.50;1.00;;;;;;5094701;28;20563;-63
2023/06/07 08:15:38;;;;;;;4.40;3.77;;;22.50;1.00;;;;;;5094982;28;20536;-63
2023/06/07 08:18:05;;;;;;;6.60;3.63;;;22.50;1.00;;;;;;5094468;28;20457;-64
2023/06/07 08:20:32;;;;;;;10.90;6.57;;;22.50;1.00;;;;;;5094405;28;20515;-65
2023/06/07 08:22:59;;;;;;;6.13;5.53;;;22.50;1.00;;;;;;5094368;28;20981;-64
2023/06/07 08:25:26;;;;;;;8.03;4.30;;;22.50;1.00;;;;;;5094461;28;20551;-64
2023/06/07 08:27:53;;;;;;;7.00;3.70;;;22.50;1.00;;;;;;5094330;28;20453;-64
2023/06/07 08:30:20;;;;;;;5.13;3.40;;;22.50;1.00;;;;;;5094240;28;20453;-64
2023/06/07 08:32:48;;;;;;;5.00;3.97;;;22.50;1.00;;;;;;5094487;28;20969;-64
2023/06/07 08:35:15;;;;;;;6.73;3.70;;;22.60;1.00;;;;;;5094404;28;20548;-67
2023/06/07 08:37:42;;;;;;;8.77;3.77;;;22.60;1.00;;;;;;5094188;28;20485;-64
2023/06/07 08:40:10;;;;;;;7.63;3.70;;;22.70;1.00;;;;;;5093884;28;20457;-65
2023/06/07 08:42:39;;;;;;;3.50;3.17;;;22.70;1.00;;;;;;5093994;28;20522;-64
2023/06/07 08:45:07;;;;;;;6.43;4.03;;;22.80;1.00;;;;;;5093868;28;20485;-64
2023/06/07 08:47:35;;;;;;;6.43;3.63;;;22.80;1.00;;;;;;5093568;28;20458;-64
2023/06/07 08:50:05;;;;;;;9.10;3.70;;;23.00;1.00;;;;;;5093878;28;20460;-64
2023/06/07 08:52:32;;;;;;;3.50;3.20;;;23.10;1.00;;;;;;5097043;28;20540;-64
2023/06/07 08:55:03;;;;;;;4.97;3.30;;;23.20;1.00;;;;;;5097392;28;20461;-64
2023/06/07 08:57:31;;;;;;;5.47;2.97;;;23.40;1.00;;;;;;5097538;28;20471;-66
2023/06/07 09:00:00;;;;;;;4.97;3.17;;;23.60;1.00;;;;;;5097091;28;20563;-64
2023/06/07 09:02:27;;;;;;;7.20;5.07;;;23.80;1.00;;;;;;5096998;28;20456;-65
2023/06/07 09:04:54;;;;;;;3.97;3.57;;;24.00;1.00;;;;;;5097496;28;20453;-65
2023/06/07 09:07:22;;;;;;;4.40;3.70;;;24.20;1.00;;;;;;5097439;28;20467;-65
2023/06/07 09:09:49;;;;;;;4.00;3.60;;;24.50;1.00;;;;;;5097017;28;20557;-64
2023/06/07 09:12:16;;;;;;;4.33;3.60;;;24.70;1.00;;;;;;5096944;28;20463;-64
2023/06/07 09:14:43;;;;;;;5.63;3.20;;;24.90;1.00;;;;;;5097358;28;20557;-64
2023/06/07 09:17:10;;;;;;;6.97;3.03;;;25.10;1.00;;;;;;5097060;28;20921;-64
2023/06/07 09:19:38;;;;;;;5.10;4.60;;;25.30;1.00;;;;;;5097135;28;20493;-66
2023/06/07 09:22:08;;;;;;;5.23;3.50;;;25.40;1.00;;;;;;5097589;28;20535;-65
2023/06/07 09:24:38;;;;;;;3.73;3.43;;;25.60;1.00;;;;;;5096889;28;20429;-65
2023/06/07 09:27:06;;;;;;;3.53;3.23;;;25.80;1.00;;;;;;5096531;28;20464;-64
2023/06/07 09:29:40;;;;;;;3.97;3.07;;;25.90;1.00;;;;;;5097461;28;20460;-65
2023/06/07 09:32:18;;;;;;;4.03;2.87;;;26.10;1.00;;;;;;5097137;28;20438;-64
2023/06/07 09:34:45;;;;;;;5.43;3.10;;;26.20;1.00;;;;;;5096324;28;20964;-65
2023/06/07 09:37:13;;;;;;;3.80;2.60;;;26.20;1.00;;;;;;5096452;28;20481;-65
2023/06/07 09:39:41;;;;;;;6.20;3.10;;;26.20;1.00;;;;;;5096672;28;20780;-65
2023/06/07 09:42:15;;;;;;;4.27;3.77;;;26.10;1.00;;;;;;5096463;28;20465;-65
2023/06/07 09:44:42;;;;;;;3.47;3.17;;;26.10;1.00;;;;;;5096425;28;20451;-65
2023/06/07 09:47:20;;;;;;;4.10;3.00;;;26.10;1.00;;;;;;5096574;28;20462;-66
2023/06/07 09:49:47;;;;;;;6.90;3.43;;;26.00;1.00;;;;;;5096351;28;20453;-66
2023/06/07 09:52:16;;;;;;;9.30;7.63;;;26.00;1.00;;;;;;5096589;28;20484;-66
2023/06/07 09:54:45;;;;;;;3.20;2.90;;;26.00;1.00;;;;;;5096183;28;20542;-66
2023/06/07 09:57:28;;;;;;;5.17;2.90;;;26.00;1.00;;;;;;5096246;28;20840;-66
2023/06/07 09:59:58;;;;;;;3.60;3.10;;;26.00;1.00;;;;;;5096226;28;20442;-66
2023/06/07 10:02:26;;;;;;;103.03;91.00;;;26.00;1.00;;;;;;5095505;28;20458;-65
2023/06/07 10:04:55;;;;;;;3.53;3.00;;;26.10;1.00;;;;;;5095515;28;20795;-66
2023/06/07 10:07:24;;;;;;;4.17;3.77;;;26.10;1.00;;;;;;5095867;28;20480;-66
2023/06/07 10:09:56;;;;;;;5.00;4.60;;;26.20;1.00;;;;;;5095882;28;20515;-66
2023/06/07 10:12:25;;;;;;;3.50;3.20;;;26.30;1.00;;;;;;5096019;28;20537;-65
2023/06/07 10:14:54;;;;;;;4.90;2.93;;;26.40;1.00;;;;;;5096016;28;20881;-65
2023/06/07 10:17:25;;;;;;;7.70;3.40;;;26.40;1.00;;;;;;5095622;28;20458;-64
2023/06/07 10:19:58;;;;;;;5.63;3.00;;;26.50;1.00;;;;;;5095422;28;20481;-64
2023/06/07 10:22:29;;;;;;;11.73;4.03;;;26.40;1.00;;;;;;5096024;28;20477;-64
2023/06/07 10:25:03;;;;;;;6.73;3.90;;;26.40;1.00;;;;;;5095229;28;20430;-64
2023/06/07 10:27:32;;;;;;;3.87;3.00;;;26.40;1.00;;;;;;5095496;28;20446;-64
2023/06/07 10:30:03;;;;;;;6.03;3.57;;;26.40;1.00;;;;;;5095526;28;20457;-66
2023/06/07 10:32:33;;;;;;;4.47;3.43;;;26.40;1.00;;;;;;5095330;28;20442;-64
2023/06/07 10:35:01;;;;;;;3.50;3.20;;;26.30;1.00;;;;;;5095468;28;20485;-65
2023/06/07 10:37:30;;;;;;;4.80;3.10;;;26.40;1.00;;;;;;5095261;28;20515;-65
2023/06/07 10:39:59;;;;;;;4.87;3.50;;;26.40;1.00;;;;;;5095412;28;20490;-65
2023/06/07 10:42:27;;;;;;;3.60;3.30;;;26.40;1.00;;;;;;5095364;28;20453;-65
2023/06/07 10:44:55;;;;;;;3.93;2.90;;;26.50;1.00;;;;;;5095317;28;20540;-65
2023/06/07 10:47:26;;;;;;;7.73;4.20;;;26.60;1.00;;;;;;5095181;28;20993;-65
2023/06/07 10:49:53;;;;;;;4.20;3.27;;;26.70;1.00;;;;;;5095357;28;20461;-65
2023/06/07 10:52:21;;;;;;;6.20;2.90;;;26.80;1.00;;;;;;5095069;28;20546;-63
2023/06/07 10:54:48;;;;;;;3.93;3.40;;;26.90;1.00;;;;;;5095181;28;20670;-63
2023/06/07 10:57:32;;;;;;;4.70;3.67;;;26.90;1.00;;;;;;5095142;28;20523;-63
2023/06/07 11:00:26;;;;;;;6.60;3.30;;;26.90;1.00;;;;;;5094492;28;20828;-65
2023/06/07 11:03:32;;;;;;;3.37;3.07;;;26.90;1.00;;;;;;5094642;28;20453;-64
2023/06/07 11:06:06;;;;;;;6.50;5.90;;;26.90;1.00;;;;;;5094516;28;21012;-65
2023/06/07 11:08:36;;;;;;;4.83;4.10;;;27.00;1.00;;;;;;5095725;28;20819;-65
2023/06/07 11:11:05;;;;;;;7.07;4.37;;;27.00;1.00;;;;;;5095104;28;20452;-66
2023/06/07 11:14:11;;;;;;;3.60;3.30;;;27.10;1.00;;;;;;5094719;28;20546;-67
2023/06/07 11:16:39;;;;;;;7.10;5.07;;;27.20;1.00;;;;;;5074536;28;20755;-65
2023/06/07 11:19:11;;;;;;;4.50;2.90;;;27.40;1.00;;;;;;5094360;28;20453;-64
2023/06/07 11:22:04;;;;;;;7.37;3.70;;;27.90;1.00;;;;;;5094897;28;20460;-66
2023/06/07 11:24:31;;;;;;;4.10;3.50;;;28.90;1.00;;;;;;5094427;28;20759;-66
2023/06/07 11:26:58;;;;;;;7.83;4.50;;;29.90;1.00;;;;;;5094384;28;20540;-65
2023/06/07 11:29:25;;;;;;;6.63;6.03;;;30.90;1.00;;;;;;5094246;28;20536;-65
2023/06/07 11:31:59;;;;;;;3.90;3.50;;;31.90;1.00;;;;;;5094476;28;20540;-65
2023/06/07 11:34:28;;;;;;;3.20;2.83;;;32.80;1.00;;;;;;5094601;28;20575;-65
2023/06/07 11:37:09;;;;;;;5.87;3.13;;;33.30;1.00;;;;;;5094290;28;20584;-65
2023/06/07 11:39:36;;;;;;;5.70;5.20;;;33.80;1.00;;;;;;5094134;28;20457;-66
2023/06/07 11:42:03;;;;;;;4.30;2.97;;;34.20;1.00;;;;;;5094576;28;20467;-66
2023/06/07 11:44:30;;;;;;;6.60;4.20;;;34.00;1.00;;;;;;5094401;28;20449;-65
2023/06/07 11:47:00;;;;;;;6.33;4.10;;;33.40;1.00;;;;;;5094461;28;20551;-65
2023/06/07 11:49:28;;;;;;;27.80;4.37;;;32.90;1.00;;;;;;5094584;28;20486;-65
2023/06/07 11:51:58;;;;;;;4.80;4.10;;;32.30;1.00;;;;;;5094495;28;20550;-65
2023/06/07 11:54:25;;;;;;;5.57;2.90;;;31.80;1.00;;;;;;5094395;28;20485;-65
2023/06/07 11:56:53;;;;;;;4.30;2.97;;;31.50;1.00;;;;;;5094247;28;20453;-65
2023/06/07 11:59:21;;;;;;;6.50;5.37;;;31.20;1.00;;;;;;5094194;28;20457;-65
2023/06/07 12:01:52;;;;;;;4.00;3.33;;;31.00;1.00;;;;;;5094185;28;20476;-65
2023/06/07 12:04:21;;;;;;;3.53;3.23;;;30.90;1.00;;;;;;5094268;28;20434;-65
2023/06/07 12:06:49;;;;;;;11.60;10.37;;;30.80;1.00;;;;;;5094324;28;20769;-65
2023/06/07 12:09:18;;;;;;;7.33;4.53;;;30.70;1.00;;;;;;5093964;28;20458;-65
2023/06/07 12:11:45;;;;;;;12.13;6.07;;;30.80;1.00;;;;;;5094136;28;20784;-66
2023/06/07 12:14:12;;;;;;;9.53;6.17;;;31.20;1.00;;;;;;5094175;28;20488;-65
2023/06/07 12:16:39;;;;;;;4.70;4.00;;;31.80;1.00;;;;;;5094290;28;20736;-65
2023/06/07 12:19:06;;;;;;;3.40;3.10;;;32.30;1.00;;;;;;5094318;28;20540;-67
2023/06/07 12:21:35;;;;;;;3.80;3.40;;;33.00;1.00;;;;;;5094129;28;20511;-65
2023/06/07 12:24:02;;;;;;;5.07;4.57;;;33.70;1.00;;;;;;5093442;28;20939;-65
2023/06/07 12:26:29;;;;;;;7.60;5.70;;;34.60;1.00;;;;;;5096190;28;20479;-65
2023/06/07 12:28:57;;;;;;;4.40;2.87;;;35.40;1.00;;;;;;5098267;28;20464;-65
2023/06/07 12:31:25;;;;;;;5.40;4.83;;;36.10;1.00;;;;;;5097762;28;20453;-65
2023/06/07 12:33:56;;;;;;;3.63;2.77;;;36.40;1.00;;;;;;5097761;28;20571;-65
2023/06/07 12:36:24;;;;;;;7.90;3.00;;;36.10;1.00;;;;;;5097651;28;20538;-67
2023/06/07 12:38:52;;;;;;;4.90;2.60;;;35.60;1.00;;;;;;5097508;28;20456;-65
2023/06/07 12:41:23;;;;;;;7.63;4.80;;;35.50;1.00;;;;;;5098039;28;20518;-65
2023/06/07 12:43:50;;;;;;;9.73;3.37;;;35.70;1.00;;;;;;5097575;28;20939;-65
2023/06/07 12:46:17;;;;;;;5.43;4.60;;;36.00;1.00;;;;;;5097256;28;20449;-67
2023/06/07 12:48:44;;;;;;;3.20;2.90;;;36.50;1.00;;;;;;5097734;28;20461;-67
2023/06/07 12:51:11;;;;;;;2.90;2.70;;;36.90;1.00;;;;;;5097826;28;20624;-67
2023/06/07 12:53:39;;;;;;;4.73;2.60;;;37.10;1.00;;;;;;5097483;28;20548;-68
2023/06/07 12:56:07;;;;;;;4.47;4.07;;;37.40;1.00;;;;;;5097342;28;20548;-67
2023/06/07 12:58:34;;;;;;;3.10;2.80;;;37.30;1.00;;;;;;5097564;28;20485;-67
2023/06/07 13:01:02;;;;;;;3.60;3.30;;;37.50;1.00;;;;;;5097917;28;20845;-66
2023/06/07 13:03:29;;;;;;;3.20;2.90;;;37.50;1.00;;;;;;5097347;28;20930;-67